Time;durP1;ratioP1;P1;durP2;ratioP2;P2;SDS_P1;SDS_P2;PMS_P1;PMS_P2;Temp;Humidity;BMP_temperature;BMP_pressure;BME280_temperature;BME280_humidity;BME280_pressure;Samples;Min_cycle;Max_cycle;Signal;HPM_P1;HPM_P2
2021/07/05 07:14:29;;;;;;;;;;;18.40;99.90;;;;;;5091963;28;19945;-86
2021/07/05 07:17:04;;;;;;;;;;;18.50;99.90;;;;;;5093366;28;19947;-86
2021/07/05 07:19:30;;;;;;;;;;;18.50;99.90;;;;;;5093443;28;19910;-88
2021/07/05 07:21:55;;;;;;;;;;;18.60;99.90;;;;;;5093289;28;19904;-87
2021/07/05 07:24:21;;;;;;;;;;;18.60;99.90;;;;;;5093461;28;19929;-87
2021/07/05 07:26:47;;;;;;;;;;;18.70;99.90;;;;;;5093359;28;19912;-86
2021/07/05 07:37:49;;;;;;;;;;;18.60;99.90;;;;;;5091905;28;19923;-84
2021/07/05 07:45:54;;;;;;;;;;;18.70;99.90;;;;;;5138134;23;19931;-86
2021/07/05 07:48:20;;;;;;;;;;;18.80;99.90;;;;;;5092900;28;20263;-85
2021/07/05 07:50:45;;;;;;;;;;;19.00;99.90;;;;;;5092638;28;19904;-85
2021/07/05 07:56:48;;;;;;;;;;;18.90;99.90;;;;;;5069016;28;19915;-84
2021/07/05 08:04:48;;;;;;;;;;;18.80;99.90;;;;;;5090878;28;20317;-85
2021/07/05 08:07:13;;;;;;;;;;;18.70;99.90;;;;;;5092516;28;19919;-84
2021/07/05 08:09:39;;;;;;;;;;;18.80;99.90;;;;;;5092194;28;20345;-85
2021/07/05 08:12:07;;;;;;;;;;;18.80;99.90;;;;;;5091910;28;19950;-86
2021/07/05 08:14:32;;;;;;;;;;;19.00;99.90;;;;;;5092307;28;19908;-85
2021/07/05 08:16:58;;;;;;;;;;;19.00;99.90;;;;;;5093551;28;19908;-85
2021/07/05 08:19:23;;;;;;;;;;;19.10;99.90;;;;;;5092276;28;19904;-85
2021/07/05 08:21:49;;;;;;;;;;;19.20;99.90;;;;;;5092658;28;19953;-85
2021/07/05 08:24:14;;;;;;;;;;;19.30;99.90;;;;;;5093692;28;19904;-85
2021/07/05 08:26:40;;;;;;;;;;;19.40;99.90;;;;;;5092402;28;19907;-85
2021/07/05 08:29:05;;;;;;;;;;;19.40;99.90;;;;;;5092065;28;19911;-85
2021/07/05 08:31:31;;;;;;;;;;;19.40;99.90;;;;;;5092146;28;19904;-86
2021/07/05 08:33:59;;;;;;;;;;;19.40;99.90;;;;;;5092513;28;19949;-85
2021/07/05 08:36:24;;;;;;;;;;;19.60;99.90;;;;;;5092327;28;20297;-85
2021/07/05 08:38:50;;;;;;;;;;;19.90;99.90;;;;;;5092435;28;20343;-85
2021/07/05 08:41:16;;;;;;;;;;;19.90;99.90;;;;;;5093600;28;19904;-84
2021/07/05 08:43:43;;;;;;;;;;;20.00;99.90;;;;;;5083690;28;20376;-85
2021/07/05 08:46:09;;;;;;;;;;;19.90;99.90;;;;;;5081688;28;19912;-84
2021/07/05 08:48:40;;;;;;;;;;;19.90;99.90;;;;;;5083734;28;20325;-84
2021/07/05 08:51:07;;;;;;;;;;;19.90;99.90;;;;;;5082621;28;19905;-84
2021/07/05 08:53:32;;;;;;;;;;;19.90;99.90;;;;;;5083688;28;19983;-84
2021/07/05 08:55:58;;;;;;;;;;;19.90;99.90;;;;;;5085142;28;19912;-85
2021/07/05 08:58:23;;;;;;;;;;;19.80;99.90;;;;;;5082934;28;19911;-84
2021/07/05 09:00:49;;;;;;;;;;;19.80;99.90;;;;;;5084513;28;20379;-84
2021/07/05 09:03:20;;;;;;;;;;;19.80;99.90;;;;;;5081306;28;19916;-85
2021/07/05 09:05:45;;;;;;;;;;;19.70;99.90;;;;;;5083433;28;19934;-85
2021/07/05 09:08:11;;;;;;;;;;;19.70;99.90;;;;;;5083936;28;19904;-85
2021/07/05 09:10:40;;;;;;;;;;;19.80;99.90;;;;;;5081008;28;19904;-86
2021/07/05 09:13:13;;;;;;;;;;;20.00;99.90;;;;;;5080977;28;19904;-85
2021/07/05 09:15:44;;;;;;;;;;;20.00;99.90;;;;;;5084066;28;19990;-85
2021/07/05 09:18:23;;;;;;;;;;;19.90;99.90;;;;;;5081911;28;19904;-85
2021/07/05 09:20:48;;;;;;;;;;;19.80;99.90;;;;;;5083844;28;19908;-85
2021/07/05 09:23:14;;;;;;;;;;;19.80;99.90;;;;;;5083880;28;20363;-85
2021/07/05 09:25:45;;;;;;;;;;;19.90;99.90;;;;;;5085274;28;19916;-85
2021/07/05 09:28:10;;;;;;;;;;;19.80;99.90;;;;;;5079184;28;20434;-85
2021/07/05 09:30:36;;;;;;;;;;;19.80;99.90;;;;;;5076848;28;19916;-85
2021/07/05 09:33:14;;;;;;;;;;;19.90;99.90;;;;;;5074885;28;19905;-85
2021/07/05 09:35:40;;;;;;;;;;;20.10;99.90;;;;;;5075181;28;19909;-85
2021/07/05 09:38:05;;;;;;;;;;;20.20;99.90;;;;;;5075319;28;19911;-84
2021/07/05 09:40:30;;;;;;;;;;;20.30;99.90;;;;;;5076305;28;19991;-84
2021/07/05 09:42:56;;;;;;;;;;;20.30;99.90;;;;;;5074487;28;20363;-85
2021/07/05 09:45:32;;;;;;;;;;;20.40;99.90;;;;;;5079866;28;19915;-85
2021/07/05 09:48:14;;;;;;;;;;;20.50;99.90;;;;;;5085282;28;20363;-85
2021/07/05 09:50:40;;;;;;;;;;;20.40;99.90;;;;;;5086185;28;20295;-85
2021/07/05 09:53:44;;;;;;;;;;;20.20;99.90;;;;;;5080997;28;19934;-85
2021/07/05 09:56:26;;;;;;;;;;;20.20;99.90;;;;;;5014829;28;20457;-87
2021/07/05 09:58:53;;;;;;;;;;;20.10;99.90;;;;;;5014958;28;19913;-86
2021/07/05 10:01:38;;;;;;;;;;;20.00;99.90;;;;;;5047910;28;19905;-86
2021/07/05 10:04:06;;;;;;;;;;;19.80;99.90;;;;;;5085717;28;19919;-85
2021/07/05 10:06:37;;;;;;;;;;;19.80;99.90;;;;;;5076542;28;19923;-86
2021/07/05 10:09:03;;;;;;;;;;;19.80;99.90;;;;;;5072707;28;19909;-87
2021/07/05 10:11:28;;;;;;;;;;;19.90;99.90;;;;;;5076608;28;19904;-86
2021/07/05 10:14:06;;;;;;;;;;;20.00;99.90;;;;;;5085789;28;19908;-86
2021/07/05 10:16:32;;;;;;;;;;;20.20;99.90;;;;;;5085470;28;20287;-86
2021/07/05 10:18:58;;;;;;;;;;;20.50;99.90;;;;;;5074050;28;19904;-86
2021/07/05 10:21:24;;;;;;;;;;;20.50;99.90;;;;;;5073451;28;19983;-87
2021/07/05 10:23:49;;;;;;;;;;;20.40;99.90;;;;;;5073388;28;19912;-88
2021/07/05 10:26:15;;;;;;;;;;;20.30;99.90;;;;;;5079927;28;20334;-85
2021/07/05 10:28:40;;;;;;;;;;;20.30;99.90;;;;;;5093000;28;19919;-87
2021/07/05 10:31:06;;;;;;;;;;;20.20;99.90;;;;;;5092885;28;20247;-84
2021/07/05 10:33:31;;;;;;;;;;;20.10;99.90;;;;;;5092462;28;19911;-86
2021/07/05 10:35:57;;;;;;;;;;;20.00;99.90;;;;;;5082473;28;19910;-87
2021/07/05 10:38:29;;;;;;;;;;;19.80;99.90;;;;;;5078319;28;20321;-87
2021/07/05 10:40:55;;;;;;;;;;;19.70;99.90;;;;;;5072176;28;19915;-87
2021/07/05 10:43:43;;;;;;;;;;;19.40;99.90;;;;;;5071913;28;20333;-86
2021/07/05 10:46:08;;;;;;;;;;;19.40;99.90;;;;;;5072493;28;19914;-86
2021/07/05 10:48:34;;;;;;;;;;;19.30;99.90;;;;;;5073219;28;19904;-87
2021/07/05 10:51:00;;;;;;;;;;;19.30;99.90;;;;;;5073757;28;19904;-85
2021/07/05 10:53:31;;;;;;;;;;;19.40;99.90;;;;;;5072782;28;19912;-84
2021/07/05 10:55:57;;;;;;;;;;;19.50;99.90;;;;;;5073087;28;19954;-84
2021/07/05 10:58:30;;;;;;;;;;;19.80;99.90;;;;;;5072548;28;19947;-84
2021/07/05 11:00:57;;;;;;;;;;;20.00;99.90;;;;;;5072638;28;19912;-86
2021/07/05 11:03:37;;;;;;;;;;;20.10;99.90;;;;;;5072563;28;19912;-84
2021/07/05 11:06:08;;;;;;;;;;;20.10;99.90;;;;;;5080827;28;19912;-82
2021/07/05 11:08:48;;;;;;;;;;;20.10;99.90;;;;;;5084006;28;19926;-84
2021/07/05 11:11:16;;;;;;;;;;;20.00;99.90;;;;;;5083423;28;20348;-83
2021/07/05 11:13:42;;;;;;;;;;;19.90;99.90;;;;;;5082328;28;20387;-84
2021/07/05 11:16:08;;;;;;;;;;;19.80;99.90;;;;;;5082007;28;20145;-86
2021/07/05 11:18:37;;;;;;;;;;;19.80;99.90;;;;;;5073027;28;19911;-87
2021/07/05 11:21:03;;;;;;;;;;;19.70;99.90;;;;;;5083214;28;19908;-86
2021/07/05 11:23:47;;;;;;;;;;;19.80;99.90;;;;;;5092344;28;20286;-87
2021/07/05 11:26:17;;;;;;;;;;;19.80;99.90;;;;;;5092511;28;19912;-83
2021/07/05 11:28:42;;;;;;;;;;;19.90;99.90;;;;;;5095602;28;19911;-85
2021/07/05 11:31:21;;;;;;;;;;;20.00;99.90;;;;;;5093595;28;20003;-84
2021/07/05 11:33:47;;;;;;;;;;;20.30;99.90;;;;;;5093636;28;19904;-86
2021/07/05 11:36:22;;;;;;;;;;;20.80;99.90;;;;;;5082598;28;19908;-85
2021/07/05 11:38:58;;;;;;;;;;;21.10;99.90;;;;;;5073804;28;19904;-85
2021/07/05 11:41:25;;;;;;;;;;;21.00;99.90;;;;;;5075833;28;19915;-85
2021/07/05 11:43:56;;;;;;;;;;;20.90;99.90;;;;;;5085183;28;19985;-85
2021/07/05 11:46:27;;;;;;;;;;;20.90;99.90;;;;;;5094671;28;19916;-85
2021/07/05 11:48:57;;;;;;;;;;;20.90;99.90;;;;;;5094486;28;19908;-87
2021/07/05 11:51:25;;;;;;;;;;;20.90;99.90;;;;;;5094385;28;19908;-85
2021/07/05 11:53:52;;;;;;;;;;;20.90;99.90;;;;;;5094136;28;20259;-86
2021/07/05 11:56:44;;;;;;;;;;;20.90;99.90;;;;;;5093542;28;19943;-83
2021/07/05 11:59:10;;;;;;;;;;;20.90;99.90;;;;;;5079164;28;19908;-84
2021/07/05 12:01:37;;;;;;;;;;;21.00;99.90;;;;;;5073825;28;20356;-84
2021/07/05 12:04:04;;;;;;;;;;;20.80;99.90;;;;;;5077986;28;19920;-83
2021/07/05 12:06:30;;;;;;;;;;;20.60;99.90;;;;;;5076778;28;19915;-84
2021/07/05 12:08:56;;;;;;;;;;;20.40;99.90;;;;;;5073853;28;19904;-85
2021/07/05 12:11:37;;;;;;;;;;;20.20;99.90;;;;;;5074764;28;19905;-84
2021/07/05 12:14:04;;;;;;;;;;;19.90;99.90;;;;;;5075534;28;19915;-84
2021/07/05 12:16:30;;;;;;;;;;;19.70;99.90;;;;;;5093902;28;19959;-85
2021/07/05 12:18:56;;;;;;;;;;;19.70;99.90;;;;;;5097168;28;19908;-85
2021/07/05 12:21:29;;;;;;;;;;;19.90;99.90;;;;;;5096619;28;19908;-84
2021/07/05 12:24:06;;;;;;;;;;;20.10;99.90;;;;;;5087995;28;19911;-83
2021/07/05 12:26:38;;;;;;;;;;;20.20;99.90;;;;;;5081203;28;19915;-82
2021/07/05 12:29:05;;;;;;;;;;;20.30;99.90;;;;;;5082546;28;19949;-85
2021/07/05 12:31:31;;;;;;;;;;;20.60;99.90;;;;;;5084706;28;19908;-85
2021/07/05 12:33:57;;;;;;;;;;;20.80;99.90;;;;;;5084519;28;19931;-85
2021/07/05 12:36:22;;;;;;;;;;;21.10;99.90;;;;;;5081063;28;20426;-86
2021/07/05 12:38:58;;;;;;;;;;;21.20;99.90;;;;;;5083266;28;20009;-86
2021/07/05 12:41:27;;;;;;;;;;;21.20;99.90;;;;;;5085380;28;19908;-86
2021/07/05 12:44:06;;;;;;;;;;;21.10;99.90;;;;;;5091581;28;19908;-87
2021/07/05 12:46:32;;;;;;;;;;;21.20;99.90;;;;;;5071582;28;19919;-87
2021/07/05 12:48:57;;;;;;;;;;;21.50;99.90;;;;;;5071231;28;19908;-86
2021/07/05 12:51:23;;;;;;;;;;;22.00;99.90;;;;;;5071424;28;19913;-87
2021/07/05 12:53:48;;;;;;;2.97;0.52;;;22.90;99.90;;;;;;5070701;28;19912;-83
2021/07/05 12:56:18;;;;;;;;;;;23.60;99.90;;;;;;5072292;28;20033;-85
2021/07/05 12:58:43;;;;;;;;;;;23.60;99.90;;;;;;5070539;28;19944;-87
2021/07/05 13:01:18;;;;;;;;;;;23.00;99.90;;;;;;5076505;28;19955;-86
2021/07/05 13:03:53;;;;;;;;;;;22.50;99.90;;;;;;5091109;28;19912;-86
2021/07/05 13:06:19;;;;;;;;;;;22.00;99.90;;;;;;5091153;28;19908;-85
2021/07/05 13:08:44;;;;;;;;;;;21.60;99.90;;;;;;5091461;28;19904;-86
2021/07/05 13:11:15;;;;;;;;;;;21.80;99.90;;;;;;5080966;28;19910;-86
2021/07/05 13:13:43;;;;;;;;;;;22.40;99.90;;;;;;5070648;28;19944;-86
2021/07/05 13:16:35;;;;;;;;;;;22.90;99.90;;;;;;5069922;28;19905;-86
2021/07/05 13:19:08;;;;;;;;;;;22.90;99.90;;;;;;5067093;28;19904;-87
2021/07/05 13:21:35;;;;;;;;;;;22.90;99.90;;;;;;5072963;28;19904;-84
2021/07/05 13:24:17;;;;;;;;;;;22.70;99.90;;;;;;5079772;28;19904;-86
2021/07/05 13:26:43;;;;;;;;;;;22.60;99.90;;;;;;5084125;28;19912;-87
2021/07/05 13:29:16;;;;;;;;;;;22.80;99.90;;;;;;5088841;28;19957;-84
2021/07/05 13:31:42;;;;;;;;;;;22.70;99.90;;;;;;5092541;28;19903;-82
2021/07/05 13:34:26;;;;;;;;;;;22.50;99.90;;;;;;5093002;28;20375;-88
2021/07/05 13:36:52;;;;;;;;;;;22.30;99.90;;;;;;5092654;28;20053;-84
2021/07/05 13:39:17;;;;;;;;;;;22.30;99.90;;;;;;5091329;28;20385;-85
2021/07/05 13:41:43;;;;;;;;;;;22.60;99.90;;;;;;5091101;28;19908;-86
2021/07/05 13:44:08;;;;;;;;;;;23.00;99.90;;;;;;5091117;28;19908;-86
2021/07/05 13:46:34;;;;;;;;;;;23.50;99.90;;;;;;5091175;28;20363;-85
2021/07/05 13:49:11;;;;;;;;;;;24.20;99.90;;;;;;5092799;28;19958;-85
2021/07/05 13:51:36;;;;;;;;;;;24.50;99.90;;;;;;5091426;28;19998;-85
2021/07/05 13:54:02;;;;;;;;;;;24.10;99.90;;;;;;5092582;28;19939;-85
2021/07/05 13:56:30;;;;;;;;;;;23.70;99.90;;;;;;5090797;28;19908;-88
2021/07/05 13:58:56;;;;;;;;;;;23.60;99.90;;;;;;5091692;28;19995;-87
2021/07/05 14:01:24;;;;;;;;;;;23.40;99.90;;;;;;5091917;28;19946;-85
2021/07/05 14:03:50;;;;;;;;;;;23.10;99.90;;;;;;5091880;28;19927;-82
2021/07/05 14:06:16;;;;;;;;;;;22.80;99.90;;;;;;5091561;28;19912;-86
2021/07/05 14:08:43;;;;;;;;;;;22.40;99.90;;;;;;5091728;28;19929;-87
2021/07/05 14:11:09;;;;;;;;;;;22.60;99.90;;;;;;5094406;28;19904;-84
2021/07/05 14:13:37;;;;;;;;;;;23.10;99.90;;;;;;5095807;28;19904;-84
2021/07/05 14:16:04;;;;;;;;;;;23.40;99.90;;;;;;5097853;28;19915;-83
2021/07/05 14:18:29;;;;;;;;;;;23.40;99.90;;;;;;5096653;28;20054;-84
2021/07/05 14:20:55;;;;;;;;;;;23.50;99.90;;;;;;5096241;28;19935;-82
2021/07/05 14:23:22;;;;;;;;;;;23.70;99.90;;;;;;5096744;28;19904;-81
2021/07/05 14:25:49;;;;;;;;;;;23.40;99.90;;;;;;5096579;28;19911;-83
2021/07/05 14:28:15;;;;;;;;;;;23.10;99.90;;;;;;5097368;28;19912;-84
2021/07/05 14:30:40;;;;;;;;;;;23.10;99.90;;;;;;5097239;28;19904;-83
2021/07/05 14:33:06;;;;;;;;;;;23.30;99.90;;;;;;5096950;28;19904;-84
2021/07/05 14:35:32;;;;;;;;;;;23.30;99.90;;;;;;5097773;28;19904;-82
2021/07/05 14:37:57;;;;;;;;;;;23.30;99.90;;;;;;5099672;28;20006;-81
2021/07/05 14:40:24;;;;;;;;;;;22.90;99.90;;;;;;5097941;28;19908;-84
2021/07/05 14:42:50;;;;;;;;;;;22.90;99.90;;;;;;5097535;28;20360;-82
2021/07/05 14:45:16;;;;;;;;;;;22.90;99.90;;;;;;5097776;28;19904;-84
2021/07/05 14:47:42;;;;;;;;;;;22.90;99.90;;;;;;5097665;28;19918;-84
2021/07/05 14:50:09;;;;;;;;;;;22.90;99.90;;;;;;5098235;28;19904;-84
2021/07/05 14:52:35;;;;;;;;;;;23.10;99.90;;;;;;5097864;28;20278;-85
2021/07/05 14:55:03;;;;;;;;;;;23.10;99.90;;;;;;5097722;28;19904;-83
2021/07/05 14:57:28;;;;;;;;;;;23.20;99.90;;;;;;5097622;28;19970;-84
2021/07/05 14:59:54;;;;;;;;;;;23.20;99.90;;;;;;5100037;28;19908;-83
2021/07/05 15:02:19;;;;;;;;;;;23.10;99.90;;;;;;5098638;28;19915;-84
2021/07/05 15:04:45;;;;;;;;;;;23.00;99.90;;;;;;5098237;28;19926;-84
2021/07/05 15:07:10;;;;;;;;;;;22.90;99.90;;;;;;5099301;28;19963;-83
2021/07/05 15:09:36;;;;;;;;;;;22.60;99.90;;;;;;5099981;28;19931;-84
2021/07/05 15:12:02;;;;;;;;;;;22.20;99.90;;;;;;5100095;28;19910;-84
2021/07/05 15:14:27;;;;;;;;;;;21.90;99.90;;;;;;5098098;28;19904;-84
2021/07/05 15:16:54;;;;;;;0.95;0.50;;;21.60;99.90;;;;;;5094930;28;19930;-83
2021/07/05 15:19:21;;;;;;;1.92;0.85;;;21.30;99.90;;;;;;5095126;28;20024;-82
2021/07/05 15:21:50;;;;;;;2.42;0.68;;;21.60;99.90;;;;;;5093406;28;20028;-82
2021/07/05 15:24:19;;;;;;;0.50;0.50;;;22.60;99.90;;;;;;5094048;28;20020;-83
2021/07/05 15:26:45;;;;;;;1.00;0.60;;;23.20;99.90;;;;;;5094532;28;20073;-82
2021/07/05 15:29:11;;;;;;;0.93;0.40;;;23.00;99.90;;;;;;5094318;28;20056;-82
2021/07/05 15:31:37;;;;;;;0.77;0.45;;;22.90;99.90;;;;;;5094415;28;20055;-84
2021/07/05 15:34:03;;;;;;;1.25;0.63;;;23.60;99.90;;;;;;5094279;28;20029;-82
2021/07/05 15:36:32;;;;;;;1.77;0.50;;;24.10;99.90;;;;;;5093960;28;20123;-83
2021/07/05 15:38:58;;;;;;;0.50;0.35;;;24.50;99.90;;;;;;5094082;28;20030;-82
2021/07/05 15:41:24;;;;;;;0.50;0.50;;;24.60;99.90;;;;;;5094371;28;20024;-82
2021/07/05 15:43:49;;;;;;;0.50;0.50;;;24.60;99.90;;;;;;5093866;28;20035;-83
2021/07/05 15:46:15;;;;;;;0.33;0.33;;;24.60;99.90;;;;;;5095380;28;20467;-85
2021/07/05 15:48:41;;;;;;;;;;;24.80;99.90;;;;;;5095506;28;20076;-82
2021/07/05 15:51:07;;;;;;;;;;;24.60;99.90;;;;;;5092956;28;20051;-83
2021/07/05 15:53:32;;;;;;;;;;;24.40;99.90;;;;;;5092429;28;19904;-83
2021/07/05 15:55:58;;;;;;;;;;;24.40;99.90;;;;;;5093249;28;20420;-83
2021/07/05 15:58:24;;;;;;;;;;;24.40;99.90;;;;;;5093042;28;19958;-82
2021/07/05 16:00:49;;;;;;;;;;;24.30;99.90;;;;;;5093357;28;19904;-84
2021/07/05 16:03:14;;;;;;;;;;;24.30;99.90;;;;;;5092819;28;19912;-84
2021/07/05 16:05:40;;;;;;;;;;;24.40;99.90;;;;;;5093832;28;24074;-83
2021/07/05 16:08:05;;;;;;;;;;;24.50;99.90;;;;;;5093011;28;19954;-84
2021/07/05 16:10:31;;;;;;;;;;;24.50;99.90;;;;;;5093278;28;19904;-84
2021/07/05 16:12:56;;;;;;;;;;;24.50;99.90;;;;;;5092755;28;19904;-84
2021/07/05 16:15:22;;;;;;;;;;;24.40;99.90;;;;;;5095230;28;19911;-82
2021/07/05 16:17:47;;;;;;;;;;;24.40;99.90;;;;;;5093081;28;19952;-82
2021/07/05 16:20:13;;;;;;;;;;;24.40;99.90;;;;;;5094488;28;19915;-84
2021/07/05 16:22:38;;;;;;;;;;;24.40;99.90;;;;;;5093199;28;19908;-84
2021/07/05 16:25:05;;;;;;;;;;;24.40;99.90;;;;;;5093197;28;20003;-84
2021/07/05 16:27:31;;;;;;;;;;;24.30;99.90;;;;;;5094785;28;19908;-82
2021/07/05 16:29:56;;;;;;;;;;;24.20;99.90;;;;;;5092422;28;19954;-83
2021/07/05 16:32:22;;;;;;;;;;;24.30;99.90;;;;;;5092245;28;19905;-83
2021/07/05 16:34:47;;;;;;;0.70;0.70;;;24.20;99.90;;;;;;5093261;28;19904;-82
2021/07/05 16:37:13;;;;;;;0.87;0.67;;;24.00;99.90;;;;;;5092679;28;20035;-82
2021/07/05 16:39:40;;;;;;;1.80;0.60;;;24.30;99.90;;;;;;5092801;28;20031;-82
2021/07/05 16:42:05;;;;;;;0.80;0.60;;;24.50;99.90;;;;;;5092463;28;20162;-82
2021/07/05 16:44:31;;;;;;;1.10;0.67;;;24.50;99.90;;;;;;5093165;28;20118;-82
2021/07/05 16:46:57;;;;;;;1.13;0.60;;;24.40;99.90;;;;;;5092840;28;20505;-83
2021/07/05 16:49:25;;;;;;;2.03;0.50;;;24.20;99.90;;;;;;5092339;28;20021;-81
2021/07/05 16:54:38;;;;;;;5.45;0.90;;;23.60;99.90;;;;;;5096722;28;20082;-81
2021/07/05 16:57:04;;;;;;;;;;;23.20;99.90;;;;;;5095971;28;20032;-81
2021/07/05 16:59:42;;;;;;;1.03;0.70;;;23.00;99.90;;;;;;5094428;28;19926;-81
2021/07/05 17:02:11;;;;;;;;;;;22.90;99.90;;;;;;5095046;28;20028;-82
2021/07/05 17:04:37;;;;;;;;;;;22.60;99.90;;;;;;5095896;28;19912;-82
2021/07/05 17:07:02;;;;;;;;;;;22.50;99.90;;;;;;5096075;28;19942;-82
2021/07/05 17:09:28;;;;;;;;;;;22.50;99.90;;;;;;5092685;28;19912;-83
2021/07/05 17:11:54;;;;;;;;;;;22.40;99.90;;;;;;5097981;28;19953;-81
2021/07/05 17:14:20;;;;;;;;;;;22.50;99.90;;;;;;5096238;28;19912;-84
2021/07/05 17:16:47;;;;;;;;;;;22.50;99.90;;;;;;5097561;28;19918;-82
2021/07/05 17:19:13;;;;;;;;;;;22.50;99.90;;;;;;5096369;28;24050;-82
2021/07/05 17:21:38;;;;;;;;;;;22.50;99.90;;;;;;5097559;28;20426;-82
2021/07/05 17:24:06;;;;;;;;;;;22.50;99.90;;;;;;5099503;28;19962;-82
2021/07/05 17:26:31;;;;;;;;;;;22.50;99.90;;;;;;5097395;28;19908;-82
2021/07/05 17:28:57;;;;;;;;;;;22.50;99.90;;;;;;5097962;28;19927;-82
2021/07/05 17:31:22;;;;;;;;;;;22.50;99.90;;;;;;5097729;28;19904;-83
2021/07/05 17:33:48;;;;;;;;;;;22.50;99.90;;;;;;5082928;28;19911;-82
2021/07/05 17:36:13;;;;;;;;;;;22.50;99.90;;;;;;5075411;28;19908;-82
2021/07/05 17:38:39;;;;;;;;;;;22.50;99.90;;;;;;5076985;28;19974;-85
2021/07/05 17:41:05;;;;;;;;;;;22.50;99.90;;;;;;5093677;28;19915;-83
2021/07/05 17:43:31;;;;;;;;;;;22.40;99.90;;;;;;5096815;28;24072;-83
2021/07/05 17:45:57;;;;;;;;;;;22.40;99.90;;;;;;5100374;28;19907;-83
2021/07/05 17:48:23;;;;;;;;;;;22.40;99.90;;;;;;5103389;28;20042;-82
2021/07/05 17:50:48;;;;;;;;;;;22.40;99.90;;;;;;5104931;28;19930;-83
2021/07/05 17:53:14;;;;;;;;;;;22.40;99.90;;;;;;5104756;28;19911;-82
2021/07/05 17:55:39;;;;;;;;;;;22.40;99.90;;;;;;5104909;28;20399;-83
2021/07/05 17:58:04;;;;;;;;;;;22.40;99.90;;;;;;5102534;28;19996;-82
2021/07/05 18:00:30;;;;;;;;;;;22.40;99.90;;;;;;5096981;28;19904;-82
2021/07/05 18:02:56;;;;;;;;;;;22.30;99.90;;;;;;5097383;28;19915;-84
2021/07/05 18:05:22;;;;;;;;;;;22.30;99.90;;;;;;5097829;28;19904;-83
2021/07/05 18:07:48;;;;;;;;;;;22.30;99.90;;;;;;5094675;28;20393;-81
2021/07/05 18:10:17;;;;;;;;;;;22.30;99.90;;;;;;5093751;28;19939;-82
2021/07/05 18:12:42;;;;;;;;;;;22.30;99.90;;;;;;5082730;28;19908;-83
2021/07/05 18:15:08;;;;;;;;;;;22.20;99.90;;;;;;5075107;28;19904;-82
2021/07/05 18:17:34;;;;;;;;;;;22.10;99.90;;;;;;5079012;28;20367;-81
2021/07/05 18:20:00;;;;;;;;;;;22.10;99.90;;;;;;5088589;28;19907;-81
2021/07/05 18:22:25;;;;;;;;;;;22.10;99.90;;;;;;5095690;28;19911;-83
2021/07/05 18:24:53;;;;;;;;;;;22.00;99.90;;;;;;5095114;28;19904;-82
2021/07/05 18:27:22;;;;;;;;;;;21.80;99.90;;;;;;5095322;28;19908;-81
2021/07/05 18:29:48;;;;;;;;;;;21.70;99.90;;;;;;5095478;28;19915;-82
2021/07/05 18:32:13;;;;;;;;;;;21.70;99.90;;;;;;5097646;28;19908;-81
2021/07/05 18:34:39;;;;;;;;;;;21.60;99.90;;;;;;5096309;28;20267;-81
2021/07/05 18:37:04;;;;;;;;;;;21.50;99.90;;;;;;5095283;28;20280;-83
2021/07/05 18:39:31;;;;;;;;;;;21.40;99.90;;;;;;5095320;28;19904;-83
2021/07/05 18:41:57;;;;;;;;;;;21.30;99.90;;;;;;5095667;28;19904;-82
2021/07/05 18:44:23;;;;;;;;;;;21.20;99.90;;;;;;5095603;28;19904;-83
2021/07/05 18:46:48;;;;;;;;;;;21.20;99.90;;;;;;5095711;28;19914;-82
2021/07/05 18:49:17;;;;;;;;;;;21.10;99.90;;;;;;5091965;28;19952;-82
2021/07/05 18:51:43;;;;;;;;;;;21.10;99.90;;;;;;5085028;28;19910;-81
2021/07/05 18:54:09;;;;;;;;;;;21.10;99.90;;;;;;5084727;28;19909;-83
2021/07/05 18:56:34;;;;;;;;;;;21.00;99.90;;;;;;5073557;28;19904;-82
2021/07/05 18:59:00;;;;;;;;;;;20.90;99.90;;;;;;5074981;28;20360;-82
2021/07/05 19:01:27;;;;;;;;;;;20.90;99.90;;;;;;5076163;28;19908;-82
2021/07/05 19:03:52;;;;;;;;;;;20.90;99.90;;;;;;5073481;28;19947;-81
2021/07/05 19:06:19;;;;;;;;;;;20.80;99.90;;;;;;5077438;28;19911;-82
2021/07/05 19:08:45;;;;;;;;;;;20.70;99.90;;;;;;5093287;28;20377;-81
2021/07/05 19:11:11;;;;;;;;;;;20.60;99.90;;;;;;5093373;28;19904;-81
2021/07/05 19:13:36;;;;;;;;;;;20.60;99.90;;;;;;5092762;28;19931;-84
2021/07/05 19:16:02;;;;;;;;;;;20.50;99.90;;;;;;5094474;28;19908;-84
2021/07/05 19:18:27;;;;;;;;;;;20.40;99.90;;;;;;5093690;28;20456;-82
2021/07/05 19:20:53;;;;;;;;;;;20.30;99.90;;;;;;5094119;28;19908;-83
2021/07/05 19:23:21;;;;;;;;;;;20.20;99.90;;;;;;5093748;28;20113;-82
2021/07/05 19:25:47;;;;;;;;;;;20.20;99.90;;;;;;5093682;28;19919;-81
2021/07/05 19:28:12;;;;;;;;;;;20.20;99.90;;;;;;5093649;28;19907;-82
2021/07/05 19:30:38;;;;;;;;;;;20.10;99.90;;;;;;5094659;28;19994;-82
2021/07/05 19:33:06;;;;;;;;;;;20.10;99.90;;;;;;5081002;28;19904;-81
2021/07/05 19:35:32;;;;;;;;;;;20.00;99.90;;;;;;5074185;28;19912;-82
2021/07/05 19:37:57;;;;;;;;;;;19.90;99.90;;;;;;5072234;28;19904;-80
2021/07/05 19:40:23;;;;;;;;;;;19.80;99.90;;;;;;5087482;28;19919;-82
2021/07/05 19:42:49;;;;;;;;;;;19.80;99.90;;;;;;5091789;28;19908;-82
2021/07/05 19:45:14;;;;;;;;;;;19.70;99.90;;;;;;5092097;28;19903;-81
2021/07/05 19:47:40;;;;;;;;;;;19.60;99.90;;;;;;5093529;28;19908;-82
2021/07/05 19:50:06;;;;;;;;;;;19.50;99.90;;;;;;5093925;28;19998;-82
2021/07/05 19:52:32;;;;;;;;;;;19.40;99.90;;;;;;5094052;28;20390;-81
2021/07/05 19:54:57;;;;;;;;;;;19.40;99.90;;;;;;5093884;28;19977;-81
2021/07/05 19:57:23;;;;;;;;;;;19.30;99.90;;;;;;5084593;28;20040;-83
2021/07/05 19:59:48;;;;;;;;;;;19.20;99.90;;;;;;5072954;28;19904;-82
2021/07/05 20:02:14;;;;;;;;;;;19.20;99.90;;;;;;5073037;28;19905;-81
2021/07/05 20:04:39;;;;;;;;;;;19.20;99.90;;;;;;5072847;28;19912;-81
2021/07/05 20:07:06;;;;;;;;;;;19.20;99.90;;;;;;5073136;28;19915;-82
2021/07/05 20:09:31;;;;;;;;;;;19.10;99.90;;;;;;5073217;28;19904;-83
2021/07/05 20:11:57;;;;;;;;;;;19.10;99.90;;;;;;5074271;28;20058;-82
2021/07/05 20:14:23;;;;;;;;;;;19.10;99.90;;;;;;5073623;28;19957;-82
2021/07/05 20:16:49;;;;;;;1.77;1.17;;;19.10;99.90;;;;;;5074229;28;19911;-81
2021/07/05 20:19:14;;;;;;;3.58;1.00;;;19.10;99.90;;;;;;5072872;28;20021;-83
2021/07/05 20:21:40;;;;;;;1.70;1.20;;;19.00;99.90;;;;;;5072756;28;20017;-83
2021/07/05 20:24:05;;;;;;;1.73;1.10;;;19.00;99.90;;;;;;5073100;28;20024;-83
2021/07/05 20:26:31;;;;;;;1.30;1.00;;;18.90;99.90;;;;;;5074440;28;20032;-81
2021/07/05 20:28:57;;;;;;;1.50;1.13;;;18.80;99.90;;;;;;5073422;28;20029;-82
2021/07/05 20:31:22;;;;;;;2.13;1.25;;;18.80;99.90;;;;;;5076362;28;20036;-83
2021/07/05 20:33:48;;;;;;;2.55;1.17;;;18.80;99.90;;;;;;5079201;28;20020;-83
2021/07/05 20:36:13;;;;;;;2.80;1.35;;;18.70;99.90;;;;;;5079844;28;20028;-83
2021/07/05 20:38:39;;;;;;;;;;;18.70;99.90;;;;;;5077202;28;20070;-82
2021/07/05 20:41:06;;;;;;;;;;;18.70;99.90;;;;;;5075465;28;19913;-83
2021/07/05 20:43:31;;;;;;;;;;;18.70;99.90;;;;;;5092734;28;19978;-82
2021/07/05 20:45:59;;;;;;;;;;;18.70;99.90;;;;;;5088110;28;19920;-83
2021/07/05 20:48:25;;;;;;;;;;;18.70;99.90;;;;;;5087667;28;19911;-84
2021/07/05 20:50:52;;;;;;;1.42;1.15;;;18.60;99.90;;;;;;5086367;28;20351;-83
2021/07/05 20:53:17;;;;;;;;;;;18.60;99.90;;;;;;5084449;28;19912;-84
2021/07/05 20:55:43;;;;;;;;;;;18.70;99.90;;;;;;5084804;28;20260;-84
2021/07/05 20:58:08;;;;;;;;;;;18.70;99.90;;;;;;5085520;28;20437;-83
2021/07/05 21:00:34;;;;;;;;;;;18.70;99.90;;;;;;5081675;28;19920;-82
2021/07/05 21:02:59;;;;;;;;;;;18.70;99.90;;;;;;5081531;28;19916;-82
2021/07/05 21:05:25;;;;;;;;;;;18.70;99.90;;;;;;5082026;28;19961;-84
2021/07/05 21:07:50;;;;;;;;;;;18.60;99.90;;;;;;5079994;28;20003;-82
2021/07/05 21:10:16;;;;;;;;;;;18.60;99.90;;;;;;5084329;28;19943;-82
2021/07/05 21:12:41;;;;;;;;;;;18.60;99.90;;;;;;5078678;28;19989;-84
2021/07/05 21:15:07;;;;;;;;;;;18.50;99.90;;;;;;5081234;28;19951;-83
2021/07/05 21:17:33;;;;;;;;;;;18.50;99.90;;;;;;5081050;28;20003;-84
2021/07/05 21:19:58;;;;;;;;;;;18.50;99.90;;;;;;5081594;28;19920;-83
2021/07/05 21:22:24;;;;;;;;;;;18.50;99.90;;;;;;5087254;28;20370;-84
2021/07/05 21:24:50;;;;;;;;;;;18.50;99.90;;;;;;5086047;28;19908;-84
2021/07/05 21:27:16;;;;;;;;;;;18.40;99.90;;;;;;5083428;28;19965;-83
2021/07/05 21:29:41;;;;;;;;;;;18.40;99.90;;;;;;5085663;28;20011;-82
2021/07/05 21:32:07;;;;;;;;;;;18.50;99.90;;;;;;5083717;28;19909;-82
2021/07/05 21:34:33;;;;;;;;;;;18.50;99.90;;;;;;5085498;28;20279;-83
2021/07/05 21:36:59;;;;;;;;;;;18.40;99.90;;;;;;5083217;28;19935;-83
2021/07/05 21:39:24;;;;;;;;;;;18.40;99.90;;;;;;5085967;28;20439;-84
2021/07/05 21:41:50;;;;;;;;;;;18.30;99.90;;;;;;5084579;28;19909;-84
2021/07/05 21:44:15;;;;;;;;;;;18.30;99.90;;;;;;5087456;28;19908;-83
2021/07/05 21:46:41;;;;;;;;;;;18.30;99.90;;;;;;5086292;28;19916;-82